createdAt,value
2018-09-13T00:07:20.733Z,39
2018-09-13T00:17:23.913Z,73
2018-09-13T00:27:29.801Z,24
2018-09-13T00:37:33.015Z,18
2018-09-13T00:47:38.451Z,11
2018-09-13T00:57:42.620Z,11
2018-09-13T01:07:46.072Z,10
2018-09-13T01:17:50.365Z,9
2018-09-13T01:27:54.655Z,9
2018-09-13T01:37:57.562Z,12
2018-09-13T01:48:02.013Z,13
2018-09-13T01:58:07.017Z,11
2018-09-13T02:08:10.469Z,14
2018-09-13T02:18:15.033Z,9
2018-09-13T02:28:18.486Z,9
2018-09-13T02:48:29.464Z,9
2018-09-13T02:58:34.137Z,10
2018-09-13T03:08:39.004Z,10
2018-09-13T03:18:43.190Z,11
2018-09-13T03:28:49.352Z,15
2018-09-13T03:38:56.607Z,18
2018-09-13T03:49:01.193Z,12
2018-09-13T03:59:07.015Z,11
2018-09-13T04:09:13.510Z,11
2018-09-13T04:19:16.206Z,11
2018-09-13T04:29:22.037Z,9
2018-09-13T04:39:26.251Z,9
2018-09-13T04:49:31.137Z,8
2018-09-13T04:59:34.047Z,14
2018-09-13T05:09:39.080Z,9
2018-09-13T05:19:44.949Z,9
2018-09-13T05:29:48.138Z,9
2018-09-13T05:39:54.591Z,8
2018-09-13T05:49:59.510Z,10
2018-09-13T06:00:05.600Z,8
2018-09-13T06:10:10.129Z,10
2018-09-13T06:20:15.049Z,15
2018-09-13T06:30:19.570Z,8
2018-09-13T06:40:24.451Z,13
2018-09-13T06:50:30.683Z,10
2018-09-13T07:00:34.926Z,8
2018-09-13T07:10:38.644Z,9
2018-09-13T07:20:44.026Z,9
2018-09-13T07:30:49.302Z,8
2018-09-13T07:40:54.012Z,9
2018-09-13T07:50:58.767Z,9
2018-09-13T08:01:04.069Z,9
2018-09-13T08:11:09.147Z,10
2018-09-13T08:21:13.602Z,11
2018-09-13T08:31:17.721Z,9
2018-09-13T08:41:23.737Z,9
2018-09-13T08:51:27.550Z,9
2018-09-13T09:01:31.380Z,9
2018-09-13T09:11:34.960Z,11
2018-09-13T09:21:38.810Z,10
2018-09-13T09:31:41.969Z,10
2018-09-13T09:41:48.540Z,9
2018-09-13T09:51:52.881Z,70
2018-09-13T10:01:55.858Z,32
2018-09-13T10:12:02.478Z,7
2018-09-13T10:22:04.520Z,6
2018-09-13T10:32:09.557Z,6
2018-09-13T10:42:17.093Z,7
2018-09-13T10:52:21.556Z,7
2018-09-13T11:02:26.484Z,6
2018-09-13T11:12:30.906Z,7
2018-09-13T11:22:38.152Z,6
2018-09-13T11:32:43.223Z,5
2018-09-13T11:42:49.633Z,7
2018-09-13T11:52:55.225Z,9
2018-09-13T12:03:01.139Z,7
2018-09-13T12:13:04.895Z,11
2018-09-13T12:23:10.352Z,9
2018-09-13T12:33:14.536Z,7
2018-09-13T12:43:16.698Z,7
2018-09-13T12:53:21.245Z,7
2018-09-13T13:03:25.029Z,6
2018-09-13T13:13:28.742Z,7
2018-09-13T13:23:33.801Z,6
2018-09-13T13:33:36.733Z,8
2018-09-13T13:43:42.999Z,10
2018-09-13T13:53:47.060Z,7
2018-09-13T14:03:51.565Z,7
2018-09-13T14:13:57.108Z,8
2018-09-13T14:24:01.139Z,7
2018-09-13T14:34:06.916Z,10
2018-09-13T14:44:10.836Z,8
2018-09-13T14:54:14.733Z,8
2018-09-13T15:04:20.590Z,7
2018-09-13T15:14:57.587Z,12
2018-09-13T15:25:04.142Z,8
2018-09-13T15:35:06.795Z,9
2018-09-13T15:45:09.838Z,12
2018-09-13T15:55:14.867Z,12
2018-09-13T16:05:19.655Z,9
2018-09-13T16:15:24.036Z,10
2018-09-13T16:25:34.376Z,11
2018-09-13T16:35:39.706Z,11
2018-09-13T16:45:41.737Z,10
2018-09-13T16:55:41.155Z,13
2018-09-13T17:05:45.517Z,15
2018-09-13T17:15:50.822Z,11
2018-09-13T17:25:56.468Z,12
2018-09-13T17:36:00.232Z,15
2018-09-13T17:46:04.156Z,22
2018-09-13T17:56:08.698Z,54
2018-09-13T18:06:15.269Z,54
2018-09-13T18:16:19.596Z,82
2018-09-13T18:26:24.175Z,71
2018-09-13T18:36:30.866Z,55
2018-09-13T18:46:33.943Z,16
2018-09-13T18:56:36.897Z,13
2018-09-13T19:06:42.072Z,12
2018-09-13T19:16:47.594Z,11
2018-09-13T19:26:52.174Z,8
2018-09-13T19:36:57.205Z,8
2018-09-13T19:47:03.069Z,8
2018-09-13T19:57:06.063Z,9
2018-09-13T20:07:11.160Z,6
2018-09-13T20:17:16.399Z,7
2018-09-13T20:27:21.611Z,7
2018-09-13T20:37:25.969Z,7
2018-09-13T20:47:29.720Z,8
2018-09-13T20:57:34.293Z,7
2018-09-13T21:07:40.265Z,9
2018-09-13T21:17:45.623Z,7
2018-09-13T21:27:47.448Z,8
2018-09-13T21:37:53.569Z,11
2018-09-13T21:47:57.706Z,8
2018-09-13T21:58:02.873Z,8
2018-09-13T22:08:07.100Z,9
2018-09-13T22:18:10.978Z,9
2018-09-13T22:28:16.014Z,10
2018-09-13T22:38:20.030Z,9
2018-09-13T22:48:23.982Z,11
2018-09-13T22:58:27.941Z,11
2018-09-13T23:08:33.128Z,14
2018-09-13T23:18:39.643Z,14
2018-09-13T23:28:43.932Z,7
2018-09-13T23:38:49.843Z,8
2018-09-13T23:48:55.600Z,7
2018-09-13T23:58:59.505Z,7
